Sns 282 P.a.delaunay — FW9514 — position and weather

sailwx.info

Track history (hours):
 
Tides and Currents Weather Stations Pressure Air Temp Water Temp Dewpoint Dewpoint Depression Visibility Wind Speed Wind Dir Waves Ship Positions

Sns 282 P.a.delaunay

Last reported at 2018-May-24 18:47 UTC. Time now 2018-May-25 10:49 UTC.
Position N 47°36' W 002°52'.

Length 10 m; draft 0.5 m.

Type: SAR. MMSI: 227007020.

Date/timePositionNaut miles runAvg speedWind from/ knotsBaromVisibWave heightAir tempDewpointWater temp
2018-May-24 18:47N 47°36' W 002°52'1 2.7
2018-May-24 18:30N 47°36' W 002°51'0 0.6
2018-May-24 18:00N 47°37' W 002°50'1 1.4
2018-May-24 17:30N 47°36' W 002°51'0 0.8
2018-May-24 17:00N 47°36' W 002°52'0 0.0
2018-May-24 16:30N 47°36' W 002°52'  
2018-May-22 09:24N 47°36' W 002°52'2 3.8
2018-May-22 09:01N 47°36' W 002°49'2 3.0
2018-May-22 08:31N 47°36' W 002°52'0 0.0
2018-May-20 17:27N 47°36' W 002°52'2 4.6
2018-May-20 17:00N 47°37' W 002°49'1 2.3
2018-May-20 16:30N 47°37' W 002°50'2 3.1
2018-May-20 16:00N 47°36' W 002°52'4 7.7
2018-May-20 15:31N 47°37' W 002°47'1 1.9
2018-May-20 15:00N 47°37' W 002°48'2 4.8
2018-May-20 14:30N 47°36' W 002°52'0 0.0
2018-May-19 20:41N 47°36' W 002°52'0 1.9
2018-May-19 20:30N 47°36' W 002°51'  
Track history (hours):
 
Tides and Currents Weather Stations Pressure Air Temp Water Temp Dewpoint Dewpoint Depression Visibility Wind Speed Wind Dir Waves Ship Positions

Sns 282 P.a.delaunay

Last reported at 2018-May-24 18:47 UTC. Time now 2018-May-25 10:49 UTC.
Position N 47°36' W 002°52'.

Length 10 m; draft 0.5 m.

Type: SAR. MMSI: 227007020.

Date/timePositionNaut miles runAvg speedWind from/ knotsBaromVisibWave heightAir tempDewpointWater temp
2018-May-24 18:47N 47°36' W 002°52'1 2.7
2018-May-24 18:30N 47°36' W 002°51'0 0.6
2018-May-24 18:00N 47°37' W 002°50'1 1.4
2018-May-24 17:30N 47°36' W 002°51'0 0.8
2018-May-24 17:00N 47°36' W 002°52'0 0.0
2018-May-24 16:30N 47°36' W 002°52'  
2018-May-22 09:24N 47°36' W 002°52'2 3.8
2018-May-22 09:01N 47°36' W 002°49'2 3.0
2018-May-22 08:31N 47°36' W 002°52'0 0.0
2018-May-20 17:27N 47°36' W 002°52'2 4.6
2018-May-20 17:00N 47°37' W 002°49'1 2.3
2018-May-20 16:30N 47°37' W 002°50'2 3.1
2018-May-20 16:00N 47°36' W 002°52'4 7.7
2018-May-20 15:31N 47°37' W 002°47'1 1.9
2018-May-20 15:00N 47°37' W 002°48'2 4.8
2018-May-20 14:30N 47°36' W 002°52'0 0.0
2018-May-19 20:41N 47°36' W 002°52'0 1.9
2018-May-19 20:30N 47°36' W 002°51'  

Dump ship's entire track history